Latest Weather Observations for Loxton

IDS60801

Issued at 6:31 am CDT Wednesday 10 February 2016 (issued every 30 minutes, with the page automatically refreshed every 10 minutes)

About weather observations | Map of weather stations | Latest weather observations for SA | Other Formats
Station Details ID: 024024 Name: LOXTON RESEARCH CENTRE Lat: -34.44 Lon: 140.60 Height: 30.1 m
Data from the previous 72 hours. | See also: Recent months at Loxton
Date/Time
CDT
Temp
°C
App
Temp
°C
Dew
Point
Rel
Hum
%
Delta-T
°C
Wind Press
QNH
hPa
Press
MSL
hPa
Rain
since 9 am
mm
Dir
 
Spd
km/h
Gust
km/h
Spd
kts
Gust
kts
10/06:30am 16.4 14.8 8.6 60 4.0 SW 7 13 4 7 1014.2 1014.0 0.0
10/06:00am 16.9 14.8 8.3 57 4.4 SSW 9 15 5 8 1013.9 1013.7 0.0
10/05:30am 17.0 14.0 7.9 55 4.6 SSW 13 17 7 9 1013.6 1013.4 0.0
10/05:00am 17.1 15.0 8.1 55 4.6 SW 9 15 5 8 1013.6 1013.4 0.0
10/04:30am 17.2 15.6 8.7 57 4.4 SW 7 13 4 7 1013.4 1013.2 0.0
10/04:00am 17.8 15.9 9.0 56 4.6 SW 9 13 5 7 1013.3 1013.1 0.0
10/03:30am 18.6 16.6 8.8 53 5.1 SW 9 13 5 7 1013.1 1012.9 0.0
10/03:00am 19.0 17.7 9.8 55 4.9 SSW 7 11 4 6 1013.1 1012.9 0.0
10/02:30am 20.1 18.3 9.6 51 5.6 S 9 15 5 8 1013.3 1013.1 0.0
10/02:00am 20.6 18.5 9.6 49 5.9 S 11 15 6 8 1013.5 1013.3 0.0
10/01:30am 21.5 19.0 9.6 46 6.4 S 13 17 7 9 1014.0 1013.8 0.0
10/01:00am 22.2 19.7 9.6 44 6.8 S 13 17 7 9 1014.3 1014.1 0.0
10/12:30am 22.8 20.1 9.0 41 7.4 SSW 13 17 7 9 1014.4 1014.2 0.0
10/12:00am 23.4 20.4 7.5 36 8.3 SSW 13 20 7 11 1014.6 1014.4 0.0
 
Date/Time
CDT
Temp
°C
App
Temp
°C
Dew
Point
Rel
Hum
%
Delta-T
°C
Wind Press
QNH
hPa
Press
MSL
hPa
Rain
since 9 am
mm
Dir
 
Spd
km/h
Gust
km/h
Spd
kts
Gust
kts
09/11:30pm 24.4 20.5 5.2 29 9.7 SSW 15 20 8 11 1014.6 1014.4 0.0
09/11:00pm 25.2 21.3 3.4 24 10.7 S 13 20 7 11 1014.7 1014.5 0.0
09/10:30pm 25.5 22.0 3.3 23 10.9 S 11 15 6 8 1014.8 1014.6 0.0
09/10:00pm 26.5 22.6 3.5 22 11.4 S 13 15 7 8 1014.7 1014.5 0.0
09/09:30pm 27.2 23.4 3.9 22 11.7 S 13 17 7 9 1014.5 1014.3 0.0
09/09:00pm 28.0 24.4 4.8 22 11.9 S 13 15 7 8 1014.3 1014.1 0.0
09/08:30pm 28.8 26.1 5.7 23 12.1 SSW 9 11 5 6 1014.1 1013.9 0.0
09/08:00pm 31.0 27.9 5.7 20 13.4 SSW 11 13 6 7 1014.2 1014.0 0.0
09/07:30pm 33.1 29.7 6.0 18 14.6 SSW 13 17 7 9 1014.1 1013.9 0.0
09/07:00pm 34.2 30.6 5.2 16 15.5 SSW 13 22 7 12 1013.9 1013.7 0.0
09/06:30pm 35.3 32.0 4.5 14 16.4 SW 11 17 6 9 1013.8 1013.6 0.0
09/06:00pm 35.4 31.6 5.7 16 16.1 SW 15 20 8 11 1013.9 1013.7 0.0
09/05:30pm 35.8 31.4 4.5 14 16.7 SW 17 24 9 13 1014.0 1013.8 0.0
09/05:00pm 35.5 32.2 6.3 16 16.0 S 13 20 7 11 1014.2 1014.0 0.0
09/04:30pm 36.0 33.8 6.0 15 16.4 S 7 11 4 6 1014.5 1014.3 0.0
09/04:00pm 35.3 33.4 6.9 17 15.7 SSE 6 11 3 6 1014.9 1014.7 0.0
09/03:30pm 34.9 33.6 6.0 16 15.7 NNE 2 7 1 4 1015.3 1015.1 0.0
09/03:00pm 34.7 31.7 5.9 16 15.6 SSW 11 20 6 11 1015.7 1015.5 0.0
09/02:30pm 33.9 31.3 6.3 18 15.0 SSE 9 15 5 8 1016.1 1015.9 0.0
09/02:00pm 33.3 30.5 5.3 17 14.9 SSE 9 17 5 9 1016.7 1016.5 0.0
09/01:30pm 33.0 30.0 4.3 16 15.0 S 9 15 5 8 1017.1 1016.9 0.0
09/01:00pm 31.5 28.7 5.0 19 13.9 SSE 9 19 5 10 1017.5 1017.3 0.0
09/12:30pm 30.9 28.4 6.7 22 13.0 SSE 9 17 5 9 1017.9 1017.7 0.0
09/12:00pm 29.2 27.1 8.1 26 11.5 SSE 9 15 5 8 1018.4 1018.2 0.0
09/11:30am 28.0 25.5 8.3 29 10.7 SSE 11 24 6 13 1019.0 1018.8 0.0
09/11:00am 26.3 24.2 9.6 35 9.2 SSE 11 17 6 9 1019.2 1019.0 0.0
09/10:30am 24.3 22.5 9.4 38 8.1 SE 9 15 5 8 1019.6 1019.4 0.0
09/10:00am 22.9 20.9 10.1 44 7.0 SE 11 15 6 8 1019.7 1019.5 0.0
09/09:30am 21.6 19.8 10.9 50 5.9 SE 11 15 6 8 1020.0 1019.9 0.0
09/09:00am 20.5 17.5 10.6 53 5.4 SE 17 20 9 11 1020.0 1019.9 0.0
09/08:30am 19.6 16.7 11.0 57 4.7 SE 17 20 9 11 1020.0 1019.9 0.0
09/08:00am 18.7 16.5 10.9 60 4.2 SE 13 22 7 12 1019.8 1019.7 0.0
09/07:30am 17.5 15.6 10.6 64 3.7 SSE 11 17 6 9 1019.6 1019.4 0.0
09/07:00am 16.6 14.7 10.4 67 3.3 SSE 11 13 6 7 1019.5 1019.3 0.0
09/06:30am 16.5 14.1 10.2 66 3.3 SSE 13 17 7 9 1019.2 1019.0 0.0
09/06:00am 16.9 14.4 9.8 63 3.7 SSE 13 17 7 9 1019.0 1018.8 0.0
09/05:30am 17.4 14.9 9.6 60 4.1 SSE 13 17 7 9 1018.8 1018.6 0.0
09/05:00am 17.9 15.3 9.3 57 4.5 SSE 13 19 7 10 1018.6 1018.4 0.0
09/04:30am 18.1 16.0 8.4 53 5.0 SSE 9 13 5 7 1018.5 1018.3 0.0
09/04:00am 18.2 15.7 8.3 52 5.1 SSE 11 15 6 8 1018.4 1018.2 0.0
09/03:30am 18.9 16.5 8.5 51 5.4 SSE 11 17 6 9 1018.4 1018.2 0.0
09/03:00am 19.5 16.3 8.3 48 5.8 S 15 20 8 11 1018.2 1018.0 0.0
09/02:30am 19.9 17.3 9.3 50 5.6 S 13 19 7 10 1018.4 1018.2 0.0
09/02:00am 19.8 17.5 10.6 55 5.0 SSW 13 17 7 9 1018.5 1018.3 0.0
09/01:30am 20.4 18.2 10.9 54 5.2 SSW 13 19 7 10 1018.6 1018.4 0.0
09/01:00am 20.5 18.1 11.4 56 5.0 SSW 15 20 8 11 1018.7 1018.5 0.0
09/12:30am 20.4 18.6 12.0 58 4.7 SW 13 19 7 10 1019.0 1018.8 0.0
09/12:00am 20.9 18.7 12.2 57 4.9 SSW 15 22 8 12 1019.0 1018.8 0.0
 
Date/Time
CDT
Temp
°C
App
Temp
°C
Dew
Point
Rel
Hum
%
Delta-T
°C
Wind Press
QNH
hPa
Press
MSL
hPa
Rain
since 9 am
mm
Dir
 
Spd
km/h
Gust
km/h
Spd
kts
Gust
kts
08/11:30pm 21.7 18.5 11.9 53 5.5 SSW 20 33 11 18 1018.7 1018.5 0.0
08/11:00pm 22.5 19.3 12.0 51 5.9 SW 20 30 11 16 1018.7 1018.5 0.0
08/10:30pm 23.6 20.0 11.7 47 6.7 SW 22 30 12 16 1018.7 1018.5 0.0
08/10:00pm 25.1 21.3 11.2 41 7.8 SW 22 32 12 17 1018.5 1018.3 0.0
08/09:30pm 26.4 22.1 10.7 37 8.8 SW 24 35 13 19 1018.2 1018.0 0.0
08/09:00pm 28.0 23.6 5.0 23 11.8 SW 17 24 9 13 1017.9 1017.7 0.0
08/08:30pm 29.0 24.8 5.7 23 12.2 SSW 17 20 9 11 1017.7 1017.5 0.0
08/08:00pm 30.2 26.4 6.0 21 12.8 SSW 15 24 8 13 1017.5 1017.3 0.0
08/07:30pm 31.4 27.3 6.1 20 13.5 SSW 17 24 9 13 1017.2 1017.0 0.0
08/07:00pm 32.3 27.8 6.3 19 14.0 SSW 19 24 10 13 1017.0 1016.8 0.0
08/06:30pm 32.9 27.9 4.8 17 14.8 SSW 20 33 11 18 1016.8 1016.6 0.0
08/06:00pm 33.2 28.4 5.8 18 14.7 SSW 20 30 11 16 1016.8 1016.6 0.0
08/05:30pm 33.7 29.6 7.8 20 14.4 S 19 28 10 15 1016.9 1016.7 0.0
08/05:00pm 33.8 29.6 8.2 20 14.3 S 20 30 11 16 1016.9 1016.7 0.0
08/04:30pm 33.9 29.7 8.1 20 14.4 SSW 20 30 11 16 1017.3 1017.1 0.0
08/04:00pm 33.9 29.7 8.1 20 14.4 S 20 30 11 16 1017.4 1017.2 0.0
08/03:30pm 33.8 30.2 10.0 23 13.7 SSW 19 30 10 16 1017.7 1017.5 0.0
08/03:00pm 33.2 29.6 10.0 24 13.3 SSW 19 28 10 15 1018.0 1017.8 0.0
08/02:30pm 32.7 29.2 10.2 25 12.9 SSW 19 32 10 17 1018.3 1018.1 0.0
08/02:00pm 32.3 28.6 10.3 26 12.6 SSW 20 30 11 16 1018.7 1018.5 0.0
08/01:30pm 32.2 29.2 10.7 26 12.4 SSW 17 30 9 16 1019.0 1018.8 0.0
08/01:00pm 31.3 28.0 11.0 28 11.7 SSW 19 33 10 18 1019.4 1019.2 0.0
08/12:30pm 29.4 26.0 11.3 32 10.4 S 20 30 11 16 1019.8 1019.7 0.0
08/12:00pm 28.7 25.7 11.9 35 9.7 SSW 19 26 10 14 1020.3 1020.2 0.0
08/11:30am 27.6 24.7 12.2 38 8.9 SSW 19 28 10 15 1020.4 1020.3 0.0
08/11:00am 25.9 23.0 12.3 42 7.8 SSW 19 28 10 15 1020.7 1020.6 0.0
08/10:30am 24.9 22.5 12.8 47 7.0 SSW 17 24 9 13 1020.7 1020.6 0.0
08/10:00am 23.5 21.7 13.3 52 5.9 S 15 22 8 12 1020.8 1020.7 0.0
08/09:30am 21.7 19.4 13.1 58 4.9 SSW 17 24 9 13 1020.9 1020.8 0.0
08/09:00am 20.7 18.1 13.1 61 4.3 SSW 19 24 10 13 1020.8 1020.7 0.0
08/08:30am 19.4 17.3 13.6 69 3.3 SSW 17 24 9 13 1020.6 1020.5 0.0
08/08:00am 18.1 16.4 13.5 74 2.6 SSW 15 20 8 11 1020.4 1020.3 0.0
08/07:30am 17.2 15.8 13.5 79 2.1 SSW 13 20 7 11 1020.3 1020.2 0.0
08/07:00am 16.4 15.4 13.4 82 1.7 SW 11 15 6 8 1020.1 1020.0 0.0
08/06:30am 16.2 14.4 13.3 83 1.6 SW 15 20 8 11 1019.8 1019.7 0.0
08/06:00am 16.3 14.1 13.4 83 1.6 SW 17 24 9 13 1019.5 1019.3 0.0
08/05:30am 16.4 14.7 13.6 83 1.6 SW 15 20 8 11 1019.2 1019.0 0.0
08/05:00am 16.6 15.0 13.8 83 1.6 SW 15 24 8 13 1018.9 1018.7 0.0
08/04:30am 17.0 14.9 13.6 80 1.9 SW 17 22 9 12 1018.8 1018.6 0.0
08/04:00am 17.2 15.1 13.7 80 2.0 SW 17 22 9 12 1018.7 1018.5 0.0
08/03:30am 17.3 16.0 13.6 79 2.1 SW 13 19 7 10 1018.8 1018.6 0.0
08/03:00am 17.4 15.7 13.7 79 2.1 SW 15 20 8 11 1018.8 1018.6 0.0
08/02:30am 17.6 15.5 13.7 78 2.2 SW 17 26 9 14 1019.0 1018.8 0.0
08/02:00am 17.9 15.8 13.7 76 2.4 SW 17 24 9 13 1019.0 1018.8 0.0
08/01:30am 18.2 16.1 13.6 74 2.6 SW 17 24 9 13 1019.2 1019.0 0.0
08/01:00am 18.7 16.0 13.4 71 3.0 SW 20 32 11 17 1019.2 1019.0 0.0
08/12:30am 19.4 16.5 12.8 65 3.7 SW 20 30 11 16 1018.9 1018.7 0.0
08/12:00am 20.3 17.3 12.5 61 4.4 SW 20 28 11 15 1018.7 1018.5 0.0
 
Date/Time
CDT
Temp
°C
App
Temp
°C
Dew
Point
Rel
Hum
%
Delta-T
°C
Wind Press
QNH
hPa
Press
MSL
hPa
Rain
since 9 am
mm
Dir
 
Spd
km/h
Gust
km/h
Spd
kts
Gust
kts
07/11:30pm 21.3 18.1 12.0 55 5.2 SW 20 28 11 15 1018.4 1018.2 0.0
07/11:00pm 22.5 19.1 11.4 49 6.2 SW 20 30 11 16 1018.1 1017.9 0.0
07/10:30pm 23.4 18.8 11.2 46 6.8 SW 26 41 14 22 1017.8 1017.6 0.0
07/10:00pm 25.0 21.2 11.1 41 7.8 SW 22 37 12 20 1017.3 1017.1 0.0
07/09:30pm 26.5 21.9 11.1 38 8.7 SW 26 39 14 21 1016.8 1016.6 0.0
07/09:00pm 28.0 23.3 10.7 34 9.8 SW 26 39 14 21 1016.4 1016.2 0.0
07/08:30pm 29.7 25.1 9.8 29 11.2 SW 24 39 13 21 1015.8 1015.6 0.0
07/08:00pm 30.9 26.2 9.4 26 12.1 SW 24 37 13 20 1015.4 1015.2 0.0
07/07:30pm 32.2 26.6 8.8 23 13.1 SW 28 39 15 21 1015.0 1014.8 0.0
07/07:00pm 33.5 29.0 8.6 21 14.0 SW 22 33 12 18 1014.5 1014.3 0.0
07/06:30pm 34.2 30.1 8.7 21 14.4 SW 20 32 11 17 1014.2 1014.0 0.0
07/06:00pm 34.9 31.4 8.6 20 14.9 SSW 17 32 9 17 1014.0 1013.8 0.0
07/05:30pm 34.8 32.3 8.1 19 15.0 S 11 15 6 8 1014.0 1013.8 0.0
07/05:00pm 34.9 30.6 7.0 18 15.4 SSW 19 28 10 15 1014.2 1014.0 0.0
07/04:30pm 35.4 31.6 7.7 18 15.5 SSW 17 28 9 15 1014.2 1014.0 0.0
07/04:00pm 35.3 32.0 8.1 19 15.3 SSW 15 28 8 15 1014.4 1014.2 0.0
07/03:30pm 35.2 32.9 7.3 18 15.5 SSW 9 19 5 10 1014.6 1014.4 0.0
07/03:00pm 35.3 32.5 8.4 19 15.2 S 13 22 7 12 1014.8 1014.6 0.0
07/02:30pm 34.7 32.6 8.2 19 14.9 S 9 22 5 12 1015.1 1014.9 0.0
07/02:00pm 33.7 31.3 8.7 21 14.1 WNW 11 20 6 11 1015.4 1015.2 0.0
07/01:30pm 33.3 31.1 7.9 20 14.1 SSW 9 15 5 8 1015.7 1015.5 0.0
07/01:00pm 32.7 31.2 9.2 23 13.3 WSW 7 13 4 7 1016.0 1015.8 0.0
07/12:30pm 32.3 30.7 10.1 25 12.7 SSW 9 15 5 8 1016.2 1016.0 0.0
07/12:00pm 31.1 29.8 10.0 27 12.0 S 7 15 4 8 1016.5 1016.3 0.0
07/11:30am 29.3 28.5 11.7 33 10.2 SSE 7 13 4 7 1016.7 1016.5 0.0
07/11:00am 28.0 27.4 13.5 41 8.6 SSW 9 15 5 8 1016.9 1016.7 0.0
07/10:30am 26.2 25.7 13.9 46 7.3 SSW 9 15 5 8 1017.1 1016.9 0.0
07/10:00am 24.7 23.5 14.0 51 6.3 SSW 13 20 7 11 1017.2 1017.0 0.0
07/09:30am 22.6 21.6 14.6 60 4.7 SSW 13 19 7 10 1017.2 1017.0 0.0
07/09:00am 21.3 20.4 14.8 66 3.8 SW 13 19 7 10 1017.0 1016.8 0.0
07/08:30am 20.5 19.3 15.1 71 3.2 SSW 15 22 8 12 1016.9 1016.7 0.0
07/08:00am 19.2 18.8 15.3 78 2.3 SSW 11 17 6 9 1016.5 1016.3 0.0
07/07:30am 17.7 17.7 15.1 85 1.5 SSW 9 13 5 7 1016.0 1015.8 0.0
07/07:00am 16.7 18.1 14.4 86 1.3 CALM 0 2 0 1 1015.4 1015.2 0.0

Other Formats:

Comma delimited format used in spreadsheet applications
http://www.bom.gov.au/fwo/IDS60801/IDS60801.94682.axf

JavaScript Object Notation format (JSON) in row-major order
http://www.bom.gov.au/fwo/IDS60801/IDS60801.94682.json